sensor_id;sensor_type;location;lat;lon;timestamp;P1;durP1;ratioP1;P2;durP2;ratioP2
43363;SDS011;40636;52.424;-1.948;2023-03-01T00:01:24;11.02;;;4.75;;
43363;SDS011;40636;52.424;-1.948;2023-03-01T00:03:53;10.18;;;5.00;;
43363;SDS011;40636;52.424;-1.948;2023-03-01T00:06:21;5.93;;;3.53;;
43363;SDS011;40636;52.424;-1.948;2023-03-01T00:08:48;6.05;;;3.72;;
43363;SDS011;40636;52.424;-1.948;2023-03-01T00:11:19;9.55;;;3.85;;
43363;SDS011;40636;52.424;-1.948;2023-03-01T00:13:47;7.82;;;3.85;;
43363;SDS011;40636;52.424;-1.948;2023-03-01T00:16:17;7.47;;;4.10;;
43363;SDS011;40636;52.424;-1.948;2023-03-01T00:18:48;9.73;;;4.40;;
43363;SDS011;40636;52.424;-1.948;2023-03-01T00:21:15;8.65;;;4.22;;
43363;SDS011;40636;52.424;-1.948;2023-03-01T00:23:42;16.27;;;5.65;;
43363;SDS011;40636;52.424;-1.948;2023-03-01T00:26:10;6.88;;;4.13;;
43363;SDS011;40636;52.424;-1.948;2023-03-01T00:28:39;9.95;;;5.43;;
43363;SDS011;40636;52.424;-1.948;2023-03-01T00:31:06;7.97;;;4.28;;
43363;SDS011;40636;52.424;-1.948;2023-03-01T00:33:38;7.38;;;4.30;;
43363;SDS011;40636;52.424;-1.948;2023-03-01T00:36:05;9.25;;;5.43;;
43363;SDS011;40636;52.424;-1.948;2023-03-01T00:38:39;14.05;;;5.10;;
43363;SDS011;40636;52.424;-1.948;2023-03-01T00:41:09;10.90;;;4.68;;
43363;SDS011;40636;52.424;-1.948;2023-03-01T00:43:37;7.85;;;4.88;;
43363;SDS011;40636;52.424;-1.948;2023-03-01T00:46:05;9.60;;;4.63;;
43363;SDS011;40636;52.424;-1.948;2023-03-01T00:48:37;9.05;;;4.60;;
43363;SDS011;40636;52.424;-1.948;2023-03-01T00:51:06;11.85;;;5.13;;
43363;SDS011;40636;52.424;-1.948;2023-03-01T00:53:38;12.00;;;4.60;;
43363;SDS011;40636;52.424;-1.948;2023-03-01T00:56:06;10.85;;;4.40;;
43363;SDS011;40636;52.424;-1.948;2023-03-01T00:58:34;9.10;;;5.15;;
43363;SDS011;40636;52.424;-1.948;2023-03-01T01:01:06;10.82;;;4.95;;
43363;SDS011;40636;52.424;-1.948;2023-03-01T01:03:45;12.23;;;5.55;;
43363;SDS011;40636;52.424;-1.948;2023-03-01T01:06:17;8.52;;;3.90;;
43363;SDS011;40636;52.424;-1.948;2023-03-01T01:08:45;6.07;;;4.28;;
43363;SDS011;40636;52.424;-1.948;2023-03-01T01:11:13;15.48;;;4.70;;
43363;SDS011;40636;52.424;-1.948;2023-03-01T01:13:40;12.00;;;4.20;;
43363;SDS011;40636;52.424;-1.948;2023-03-01T01:16:07;7.50;;;4.40;;
43363;SDS011;40636;52.424;-1.948;2023-03-01T01:18:35;5.20;;;3.38;;
43363;SDS011;40636;52.424;-1.948;2023-03-01T01:21:09;9.90;;;3.92;;
43363;SDS011;40636;52.424;-1.948;2023-03-01T01:23:38;6.65;;;3.40;;
43363;SDS011;40636;52.424;-1.948;2023-03-01T01:26:13;9.88;;;4.07;;
43363;SDS011;40636;52.424;-1.948;2023-03-01T01:28:41;8.75;;;3.58;;
43363;SDS011;40636;52.424;-1.948;2023-03-01T01:31:08;7.78;;;3.03;;
43363;SDS011;40636;52.424;-1.948;2023-03-01T01:33:35;4.88;;;3.40;;
43363;SDS011;40636;52.424;-1.948;2023-03-01T01:36:07;3.58;;;2.55;;
43363;SDS011;40636;52.424;-1.948;2023-03-01T01:38:34;5.22;;;2.55;;
43363;SDS011;40636;52.424;-1.948;2023-03-01T01:41:02;5.65;;;2.45;;
43363;SDS011;40636;52.424;-1.948;2023-03-01T01:43:32;6.90;;;3.35;;
43363;SDS011;40636;52.424;-1.948;2023-03-01T01:46:02;7.55;;;3.55;;
43363;SDS011;40636;52.424;-1.948;2023-03-01T01:48:38;7.63;;;3.42;;
43363;SDS011;40636;52.424;-1.948;2023-03-01T01:51:09;7.80;;;2.88;;
43363;SDS011;40636;52.424;-1.948;2023-03-01T01:53:39;7.15;;;3.17;;
43363;SDS011;40636;52.424;-1.948;2023-03-01T01:56:08;6.32;;;2.75;;
43363;SDS011;40636;52.424;-1.948;2023-03-01T01:58:37;8.43;;;2.88;;
43363;SDS011;40636;52.424;-1.948;2023-03-01T02:01:07;4.90;;;3.15;;
43363;SDS011;40636;52.424;-1.948;2023-03-01T02:03:34;4.80;;;2.70;;
43363;SDS011;40636;52.424;-1.948;2023-03-01T02:08:41;7.18;;;3.17;;
43363;SDS011;40636;52.424;-1.948;2023-03-01T02:11:09;5.95;;;3.22;;
43363;SDS011;40636;52.424;-1.948;2023-03-01T02:13:37;11.30;;;3.42;;
43363;SDS011;40636;52.424;-1.948;2023-03-01T02:16:05;6.60;;;3.10;;
43363;SDS011;40636;52.424;-1.948;2023-03-01T02:18:35;9.35;;;3.28;;
43363;SDS011;40636;52.424;-1.948;2023-03-01T02:21:11;4.88;;;2.53;;
43363;SDS011;40636;52.424;-1.948;2023-03-01T02:23:47;9.63;;;3.70;;
43363;SDS011;40636;52.424;-1.948;2023-03-01T02:26:31;8.20;;;2.92;;
43363;SDS011;40636;52.424;-1.948;2023-03-01T02:29:08;8.73;;;3.92;;
43363;SDS011;40636;52.424;-1.948;2023-03-01T02:31:35;12.77;;;3.78;;
43363;SDS011;40636;52.424;-1.948;2023-03-01T02:34:10;13.18;;;4.25;;
43363;SDS011;40636;52.424;-1.948;2023-03-01T02:36:44;7.88;;;3.95;;
43363;SDS011;40636;52.424;-1.948;2023-03-01T02:39:15;8.15;;;4.35;;
43363;SDS011;40636;52.424;-1.948;2023-03-01T02:41:55;7.53;;;4.22;;
43363;SDS011;40636;52.424;-1.948;2023-03-01T02:44:23;8.48;;;4.78;;
43363;SDS011;40636;52.424;-1.948;2023-03-01T02:46:50;10.55;;;4.25;;
43363;SDS011;40636;52.424;-1.948;2023-03-01T02:49:20;10.52;;;4.20;;
43363;SDS011;40636;52.424;-1.948;2023-03-01T02:51:57;11.13;;;4.78;;
43363;SDS011;40636;52.424;-1.948;2023-03-01T02:57:15;8.45;;;4.80;;
43363;SDS011;40636;52.424;-1.948;2023-03-01T02:59:42;8.07;;;4.13;;
43363;SDS011;40636;52.424;-1.948;2023-03-01T03:02:22;6.40;;;4.40;;
43363;SDS011;40636;52.424;-1.948;2023-03-01T03:05:10;8.18;;;4.20;;
43363;SDS011;40636;52.424;-1.948;2023-03-01T03:07:39;7.55;;;3.75;;
43363;SDS011;40636;52.424;-1.948;2023-03-01T03:10:09;6.57;;;3.10;;
43363;SDS011;40636;52.424;-1.948;2023-03-01T03:12:54;6.18;;;3.20;;
43363;SDS011;40636;52.424;-1.948;2023-03-01T03:15:25;4.78;;;3.13;;
43363;SDS011;40636;52.424;-1.948;2023-03-01T03:17:53;6.20;;;3.30;;
43363;SDS011;40636;52.424;-1.948;2023-03-01T03:20:21;4.60;;;2.78;;
43363;SDS011;40636;52.424;-1.948;2023-03-01T03:22:51;6.10;;;2.65;;
43363;SDS011;40636;52.424;-1.948;2023-03-01T03:25:19;4.43;;;2.40;;
43363;SDS011;40636;52.424;-1.948;2023-03-01T03:27:48;3.95;;;2.92;;
43363;SDS011;40636;52.424;-1.948;2023-03-01T03:30:16;5.72;;;3.00;;
43363;SDS011;40636;52.424;-1.948;2023-03-01T03:32:45;7.03;;;2.72;;
43363;SDS011;40636;52.424;-1.948;2023-03-01T03:37:54;4.40;;;2.50;;
43363;SDS011;40636;52.424;-1.948;2023-03-01T03:42:59;8.43;;;2.80;;
43363;SDS011;40636;52.424;-1.948;2023-03-01T03:45:26;6.38;;;2.80;;
43363;SDS011;40636;52.424;-1.948;2023-03-01T03:47:54;4.70;;;3.58;;
43363;SDS011;40636;52.424;-1.948;2023-03-01T03:50:20;10.23;;;3.80;;
43363;SDS011;40636;52.424;-1.948;2023-03-01T03:52:47;5.20;;;3.53;;
43363;SDS011;40636;52.424;-1.948;2023-03-01T03:55:13;11.82;;;4.10;;
43363;SDS011;40636;52.424;-1.948;2023-03-01T03:57:46;9.02;;;3.97;;
43363;SDS011;40636;52.424;-1.948;2023-03-01T04:00:18;7.78;;;4.20;;
43363;SDS011;40636;52.424;-1.948;2023-03-01T04:02:47;9.02;;;4.50;;
43363;SDS011;40636;52.424;-1.948;2023-03-01T04:05:15;8.02;;;4.18;;
43363;SDS011;40636;52.424;-1.948;2023-03-01T04:07:43;7.05;;;3.92;;
43363;SDS011;40636;52.424;-1.948;2023-03-01T04:10:12;9.75;;;4.57;;
43363;SDS011;40636;52.424;-1.948;2023-03-01T04:12:40;7.88;;;4.07;;
43363;SDS011;40636;52.424;-1.948;2023-03-01T04:15:10;10.52;;;4.47;;
43363;SDS011;40636;52.424;-1.948;2023-03-01T04:17:44;11.95;;;4.70;;
43363;SDS011;40636;52.424;-1.948;2023-03-01T04:20:14;7.80;;;3.85;;
43363;SDS011;40636;52.424;-1.948;2023-03-01T04:22:52;9.27;;;4.25;;
43363;SDS011;40636;52.424;-1.948;2023-03-01T04:25:34;9.43;;;3.72;;
43363;SDS011;40636;52.424;-1.948;2023-03-01T04:28:01;9.00;;;3.85;;
43363;SDS011;40636;52.424;-1.948;2023-03-01T04:30:27;8.68;;;4.10;;
43363;SDS011;40636;52.424;-1.948;2023-03-01T04:32:54;7.68;;;3.75;;
43363;SDS011;40636;52.424;-1.948;2023-03-01T04:35:21;9.23;;;4.22;;
43363;SDS011;40636;52.424;-1.948;2023-03-01T04:37:47;11.50;;;3.95;;
43363;SDS011;40636;52.424;-1.948;2023-03-01T04:40:15;7.93;;;3.70;;
43363;SDS011;40636;52.424;-1.948;2023-03-01T04:42:42;11.60;;;3.95;;
43363;SDS011;40636;52.424;-1.948;2023-03-01T04:45:09;8.38;;;3.90;;
43363;SDS011;40636;52.424;-1.948;2023-03-01T04:47:40;7.78;;;4.00;;
43363;SDS011;40636;52.424;-1.948;2023-03-01T04:50:09;4.82;;;3.50;;
43363;SDS011;40636;52.424;-1.948;2023-03-01T04:52:37;6.85;;;3.60;;
43363;SDS011;40636;52.424;-1.948;2023-03-01T04:55:04;9.52;;;3.95;;
43363;SDS011;40636;52.424;-1.948;2023-03-01T04:57:31;9.00;;;4.82;;
43363;SDS011;40636;52.424;-1.948;2023-03-01T04:59:58;10.73;;;4.22;;
43363;SDS011;40636;52.424;-1.948;2023-03-01T05:02:25;10.18;;;4.78;;
43363;SDS011;40636;52.424;-1.948;2023-03-01T05:04:51;8.90;;;4.90;;
43363;SDS011;40636;52.424;-1.948;2023-03-01T05:07:18;10.05;;;3.80;;
43363;SDS011;40636;52.424;-1.948;2023-03-01T05:09:46;10.60;;;4.70;;
43363;SDS011;40636;52.424;-1.948;2023-03-01T05:12:13;8.95;;;4.70;;
43363;SDS011;40636;52.424;-1.948;2023-03-01T05:14:40;7.72;;;4.32;;
43363;SDS011;40636;52.424;-1.948;2023-03-01T05:17:07;9.27;;;3.25;;
43363;SDS011;40636;52.424;-1.948;2023-03-01T05:19:34;8.98;;;4.18;;
43363;SDS011;40636;52.424;-1.948;2023-03-01T05:22:01;11.07;;;4.05;;
43363;SDS011;40636;52.424;-1.948;2023-03-01T05:24:28;5.97;;;3.55;;
43363;SDS011;40636;52.424;-1.948;2023-03-01T05:26:57;15.77;;;4.18;;
43363;SDS011;40636;52.424;-1.948;2023-03-01T05:29:24;9.60;;;3.72;;
43363;SDS011;40636;52.424;-1.948;2023-03-01T05:31:55;12.60;;;3.50;;
43363;SDS011;40636;52.424;-1.948;2023-03-01T05:34:27;8.35;;;4.10;;
43363;SDS011;40636;52.424;-1.948;2023-03-01T05:36:58;8.60;;;4.47;;
43363;SDS011;40636;52.424;-1.948;2023-03-01T05:39:26;7.47;;;4.03;;
43363;SDS011;40636;52.424;-1.948;2023-03-01T05:41:54;6.45;;;3.72;;
43363;SDS011;40636;52.424;-1.948;2023-03-01T05:44:23;5.95;;;3.78;;
43363;SDS011;40636;52.424;-1.948;2023-03-01T05:46:50;5.85;;;3.70;;
43363;SDS011;40636;52.424;-1.948;2023-03-01T05:49:17;9.10;;;3.80;;
43363;SDS011;40636;52.424;-1.948;2023-03-01T05:51:47;7.38;;;3.72;;
43363;SDS011;40636;52.424;-1.948;2023-03-01T05:54:15;6.18;;;3.47;;
43363;SDS011;40636;52.424;-1.948;2023-03-01T05:56:43;4.95;;;3.42;;
43363;SDS011;40636;52.424;-1.948;2023-03-01T05:59:10;6.28;;;3.40;;
43363;SDS011;40636;52.424;-1.948;2023-03-01T06:01:37;5.30;;;3.03;;
43363;SDS011;40636;52.424;-1.948;2023-03-01T06:04:04;6.65;;;2.65;;
43363;SDS011;40636;52.424;-1.948;2023-03-01T06:06:34;5.20;;;2.83;;
43363;SDS011;40636;52.424;-1.948;2023-03-01T06:09:04;5.72;;;3.28;;
43363;SDS011;40636;52.424;-1.948;2023-03-01T06:11:34;4.47;;;3.17;;
43363;SDS011;40636;52.424;-1.948;2023-03-01T06:14:01;6.28;;;3.10;;
43363;SDS011;40636;52.424;-1.948;2023-03-01T06:16:28;5.00;;;3.47;;
43363;SDS011;40636;52.424;-1.948;2023-03-01T06:18:55;4.53;;;2.83;;
43363;SDS011;40636;52.424;-1.948;2023-03-01T06:21:22;4.18;;;2.20;;
43363;SDS011;40636;52.424;-1.948;2023-03-01T06:23:48;6.68;;;2.78;;
43363;SDS011;40636;52.424;-1.948;2023-03-01T06:26:15;8.68;;;3.78;;
43363;SDS011;40636;52.424;-1.948;2023-03-01T06:28:42;9.27;;;3.63;;
43363;SDS011;40636;52.424;-1.948;2023-03-01T06:31:08;5.57;;;3.45;;
43363;SDS011;40636;52.424;-1.948;2023-03-01T06:33:35;11.90;;;3.75;;
43363;SDS011;40636;52.424;-1.948;2023-03-01T06:36:02;6.78;;;2.70;;
43363;SDS011;40636;52.424;-1.948;2023-03-01T06:38:29;5.57;;;2.45;;
43363;SDS011;40636;52.424;-1.948;2023-03-01T06:40:56;6.05;;;3.08;;
43363;SDS011;40636;52.424;-1.948;2023-03-01T06:43:23;6.30;;;3.33;;
43363;SDS011;40636;52.424;-1.948;2023-03-01T06:45:50;6.50;;;3.38;;
43363;SDS011;40636;52.424;-1.948;2023-03-01T06:48:17;9.05;;;4.53;;
43363;SDS011;40636;52.424;-1.948;2023-03-01T06:50:43;7.57;;;3.97;;
43363;SDS011;40636;52.424;-1.948;2023-03-01T06:53:10;6.85;;;3.97;;
43363;SDS011;40636;52.424;-1.948;2023-03-01T06:55:37;6.43;;;4.07;;
43363;SDS011;40636;52.424;-1.948;2023-03-01T06:58:04;8.40;;;4.38;;
43363;SDS011;40636;52.424;-1.948;2023-03-01T07:00:30;8.10;;;4.15;;
43363;SDS011;40636;52.424;-1.948;2023-03-01T07:02:58;9.38;;;3.55;;
43363;SDS011;40636;52.424;-1.948;2023-03-01T07:05:26;6.95;;;4.57;;
43363;SDS011;40636;52.424;-1.948;2023-03-01T07:07:53;7.85;;;4.15;;
43363;SDS011;40636;52.424;-1.948;2023-03-01T07:10:20;7.05;;;4.35;;
43363;SDS011;40636;52.424;-1.948;2023-03-01T07:12:46;8.38;;;5.43;;
43363;SDS011;40636;52.424;-1.948;2023-03-01T07:15:13;10.73;;;4.28;;
43363;SDS011;40636;52.424;-1.948;2023-03-01T07:17:41;6.40;;;4.20;;
43363;SDS011;40636;52.424;-1.948;2023-03-01T07:20:10;15.73;;;4.93;;
43363;SDS011;40636;52.424;-1.948;2023-03-01T07:22:39;6.75;;;3.80;;
43363;SDS011;40636;52.424;-1.948;2023-03-01T07:25:08;6.20;;;3.45;;
43363;SDS011;40636;52.424;-1.948;2023-03-01T07:27:36;7.15;;;3.67;;
43363;SDS011;40636;52.424;-1.948;2023-03-01T07:30:03;8.70;;;4.25;;
43363;SDS011;40636;52.424;-1.948;2023-03-01T07:32:30;5.63;;;3.58;;
43363;SDS011;40636;52.424;-1.948;2023-03-01T07:34:57;8.88;;;4.13;;
43363;SDS011;40636;52.424;-1.948;2023-03-01T07:37:24;8.32;;;4.40;;
43363;SDS011;40636;52.424;-1.948;2023-03-01T07:39:50;5.85;;;3.17;;
43363;SDS011;40636;52.424;-1.948;2023-03-01T07:42:17;8.15;;;3.97;;
43363;SDS011;40636;52.424;-1.948;2023-03-01T07:44:44;7.03;;;3.45;;
43363;SDS011;40636;52.424;-1.948;2023-03-01T07:47:10;6.32;;;3.85;;
43363;SDS011;40636;52.424;-1.948;2023-03-01T07:49:37;7.15;;;3.85;;
43363;SDS011;40636;52.424;-1.948;2023-03-01T07:52:04;7.75;;;3.63;;
43363;SDS011;40636;52.424;-1.948;2023-03-01T07:54:30;8.35;;;3.42;;
43363;SDS011;40636;52.424;-1.948;2023-03-01T07:56:57;9.02;;;4.03;;
43363;SDS011;40636;52.424;-1.948;2023-03-01T07:59:23;9.48;;;4.40;;
43363;SDS011;40636;52.424;-1.948;2023-03-01T08:01:55;6.65;;;3.53;;
43363;SDS011;40636;52.424;-1.948;2023-03-01T08:04:23;9.77;;;4.13;;
43363;SDS011;40636;52.424;-1.948;2023-03-01T08:06:51;6.57;;;4.25;;
43363;SDS011;40636;52.424;-1.948;2023-03-01T08:09:18;5.50;;;3.33;;
43363;SDS011;40636;52.424;-1.948;2023-03-01T08:11:45;7.15;;;3.65;;
43363;SDS011;40636;52.424;-1.948;2023-03-01T08:14:12;6.15;;;3.85;;
43363;SDS011;40636;52.424;-1.948;2023-03-01T08:16:39;7.97;;;4.38;;
43363;SDS011;40636;52.424;-1.948;2023-03-01T08:19:06;10.43;;;4.22;;
43363;SDS011;40636;52.424;-1.948;2023-03-01T08:21:34;6.70;;;4.03;;
43363;SDS011;40636;52.424;-1.948;2023-03-01T08:24:01;11.15;;;5.07;;
43363;SDS011;40636;52.424;-1.948;2023-03-01T08:26:29;6.78;;;3.50;;
43363;SDS011;40636;52.424;-1.948;2023-03-01T08:28:57;8.95;;;3.40;;
43363;SDS011;40636;52.424;-1.948;2023-03-01T08:31:28;6.57;;;3.85;;
43363;SDS011;40636;52.424;-1.948;2023-03-01T08:34:02;13.20;;;4.75;;
43363;SDS011;40636;52.424;-1.948;2023-03-01T08:36:32;8.23;;;3.22;;
43363;SDS011;40636;52.424;-1.948;2023-03-01T08:39:03;7.65;;;4.65;;
43363;SDS011;40636;52.424;-1.948;2023-03-01T08:41:30;5.10;;;3.58;;
43363;SDS011;40636;52.424;-1.948;2023-03-01T08:43:57;7.25;;;4.63;;
43363;SDS011;40636;52.424;-1.948;2023-03-01T08:46:28;8.13;;;4.70;;
43363;SDS011;40636;52.424;-1.948;2023-03-01T08:48:56;6.82;;;3.42;;
43363;SDS011;40636;52.424;-1.948;2023-03-01T08:51:23;5.15;;;3.58;;
43363;SDS011;40636;52.424;-1.948;2023-03-01T08:53:51;11.57;;;4.63;;
43363;SDS011;40636;52.424;-1.948;2023-03-01T08:56:18;8.30;;;4.75;;
43363;SDS011;40636;52.424;-1.948;2023-03-01T08:58:46;5.30;;;3.47;;
43363;SDS011;40636;52.424;-1.948;2023-03-01T09:01:15;8.70;;;3.53;;
43363;SDS011;40636;52.424;-1.948;2023-03-01T09:03:43;9.38;;;4.70;;
43363;SDS011;40636;52.424;-1.948;2023-03-01T09:06:11;9.93;;;4.22;;
43363;SDS011;40636;52.424;-1.948;2023-03-01T09:08:39;8.57;;;3.47;;
43363;SDS011;40636;52.424;-1.948;2023-03-01T09:11:08;7.95;;;4.68;;
43363;SDS011;40636;52.424;-1.948;2023-03-01T09:13:36;9.60;;;4.53;;
43363;SDS011;40636;52.424;-1.948;2023-03-01T09:16:03;7.32;;;3.55;;
43363;SDS011;40636;52.424;-1.948;2023-03-01T09:18:32;6.82;;;4.13;;
43363;SDS011;40636;52.424;-1.948;2023-03-01T09:21:00;6.78;;;4.38;;
43363;SDS011;40636;52.424;-1.948;2023-03-01T09:23:35;6.72;;;3.53;;
43363;SDS011;40636;52.424;-1.948;2023-03-01T09:26:06;6.45;;;3.38;;
43363;SDS011;40636;52.424;-1.948;2023-03-01T09:28:36;6.97;;;4.07;;
43363;SDS011;40636;52.424;-1.948;2023-03-01T09:31:04;5.88;;;3.42;;
43363;SDS011;40636;52.424;-1.948;2023-03-01T09:33:33;5.10;;;3.15;;
43363;SDS011;40636;52.424;-1.948;2023-03-01T09:36:03;7.68;;;4.13;;
43363;SDS011;40636;52.424;-1.948;2023-03-01T09:38:32;6.68;;;3.38;;
43363;SDS011;40636;52.424;-1.948;2023-03-01T09:41:01;6.97;;;3.65;;
43363;SDS011;40636;52.424;-1.948;2023-03-01T09:46:13;7.88;;;3.40;;
43363;SDS011;40636;52.424;-1.948;2023-03-01T09:48:46;5.88;;;3.28;;
43363;SDS011;40636;52.424;-1.948;2023-03-01T09:51:18;7.78;;;3.70;;
43363;SDS011;40636;52.424;-1.948;2023-03-01T09:53:49;9.15;;;4.15;;
43363;SDS011;40636;52.424;-1.948;2023-03-01T09:56:18;14.85;;;3.10;;
43363;SDS011;40636;52.424;-1.948;2023-03-01T09:58:56;6.50;;;3.33;;
43363;SDS011;40636;52.424;-1.948;2023-03-01T10:01:52;7.05;;;3.03;;
43363;SDS011;40636;52.424;-1.948;2023-03-01T10:10:05;4.18;;;2.80;;
43363;SDS011;40636;52.424;-1.948;2023-03-01T10:12:39;5.00;;;2.58;;
43363;SDS011;40636;52.424;-1.948;2023-03-01T10:15:16;5.22;;;3.17;;
43363;SDS011;40636;52.424;-1.948;2023-03-01T10:17:51;5.03;;;2.88;;
43363;SDS011;40636;52.424;-1.948;2023-03-01T10:20:25;6.32;;;3.42;;
43363;SDS011;40636;52.424;-1.948;2023-03-01T10:22:56;5.10;;;2.50;;
43363;SDS011;40636;52.424;-1.948;2023-03-01T10:28:17;4.13;;;2.67;;
43363;SDS011;40636;52.424;-1.948;2023-03-01T10:30:51;6.20;;;3.08;;
43363;SDS011;40636;52.424;-1.948;2023-03-01T10:33:26;10.50;;;3.67;;
43363;SDS011;40636;52.424;-1.948;2023-03-01T10:35:55;5.75;;;3.17;;
43363;SDS011;40636;52.424;-1.948;2023-03-01T10:38:22;5.22;;;3.33;;
43363;SDS011;40636;52.424;-1.948;2023-03-01T10:40:59;5.60;;;2.65;;
43363;SDS011;40636;52.424;-1.948;2023-03-01T10:43:45;6.43;;;3.05;;
43363;SDS011;40636;52.424;-1.948;2023-03-01T10:46:34;8.32;;;3.03;;
43363;SDS011;40636;52.424;-1.948;2023-03-01T10:49:16;4.35;;;2.95;;
43363;SDS011;40636;52.424;-1.948;2023-03-01T10:51:46;4.40;;;2.70;;
43363;SDS011;40636;52.424;-1.948;2023-03-01T10:54:25;4.07;;;3.13;;
43363;SDS011;40636;52.424;-1.948;2023-03-01T10:56:56;3.95;;;2.60;;
43363;SDS011;40636;52.424;-1.948;2023-03-01T10:59:26;5.72;;;3.58;;
43363;SDS011;40636;52.424;-1.948;2023-03-01T11:07:28;8.88;;;2.47;;
43363;SDS011;40636;52.424;-1.948;2023-03-01T11:09:56;3.38;;;2.28;;
43363;SDS011;40636;52.424;-1.948;2023-03-01T11:12:22;3.92;;;2.05;;
43363;SDS011;40636;52.424;-1.948;2023-03-01T11:14:51;4.20;;;2.70;;
43363;SDS011;40636;52.424;-1.948;2023-03-01T11:19:59;4.32;;;2.60;;
43363;SDS011;40636;52.424;-1.948;2023-03-01T11:22:28;4.03;;;2.10;;
43363;SDS011;40636;52.424;-1.948;2023-03-01T11:24:58;3.17;;;2.20;;
43363;SDS011;40636;52.424;-1.948;2023-03-01T11:27:40;5.25;;;2.17;;
43363;SDS011;40636;52.424;-1.948;2023-03-01T11:30:19;4.80;;;2.85;;
43363;SDS011;40636;52.424;-1.948;2023-03-01T11:35:35;9.38;;;3.10;;
43363;SDS011;40636;52.424;-1.948;2023-03-01T11:38:15;6.00;;;2.83;;
43363;SDS011;40636;52.424;-1.948;2023-03-01T11:41:02;3.50;;;2.38;;
43363;SDS011;40636;52.424;-1.948;2023-03-01T11:43:49;3.00;;;2.45;;
43363;SDS011;40636;52.424;-1.948;2023-03-01T11:49:09;4.95;;;2.85;;
43363;SDS011;40636;52.424;-1.948;2023-03-01T11:54:40;5.90;;;2.58;;
43363;SDS011;40636;52.424;-1.948;2023-03-01T12:00:21;4.47;;;2.88;;
43363;SDS011;40636;52.424;-1.948;2023-03-01T12:13:52;4.43;;;2.90;;
43363;SDS011;40636;52.424;-1.948;2023-03-01T12:24:51;6.25;;;2.55;;
43363;SDS011;40636;52.424;-1.948;2023-03-01T12:33:22;4.20;;;1.83;;
43363;SDS011;40636;52.424;-1.948;2023-03-01T12:44:28;4.22;;;2.58;;
43363;SDS011;40636;52.424;-1.948;2023-03-01T12:47:11;3.50;;;2.63;;
43363;SDS011;40636;52.424;-1.948;2023-03-01T12:49:41;4.30;;;2.35;;
43363;SDS011;40636;52.424;-1.948;2023-03-01T12:52:26;5.43;;;2.85;;
43363;SDS011;40636;52.424;-1.948;2023-03-01T12:55:02;5.22;;;3.03;;
43363;SDS011;40636;52.424;-1.948;2023-03-01T12:57:54;7.05;;;2.97;;
43363;SDS011;40636;52.424;-1.948;2023-03-01T13:00:35;4.30;;;3.28;;
43363;SDS011;40636;52.424;-1.948;2023-03-01T13:03:19;4.55;;;2.40;;
43363;SDS011;40636;52.424;-1.948;2023-03-01T13:06:12;9.68;;;2.95;;
43363;SDS011;40636;52.424;-1.948;2023-03-01T13:08:50;3.90;;;2.75;;
43363;SDS011;40636;52.424;-1.948;2023-03-01T13:11:26;9.02;;;3.22;;
43363;SDS011;40636;52.424;-1.948;2023-03-01T13:14:23;5.38;;;2.55;;
43363;SDS011;40636;52.424;-1.948;2023-03-01T13:16:49;12.98;;;3.03;;
43363;SDS011;40636;52.424;-1.948;2023-03-01T13:19:19;5.63;;;2.50;;
43363;SDS011;40636;52.424;-1.948;2023-03-01T13:21:47;2.35;;;1.45;;
43363;SDS011;40636;52.424;-1.948;2023-03-01T13:24:25;2.33;;;1.27;;
43363;SDS011;40636;52.424;-1.948;2023-03-01T13:29:44;5.70;;;1.65;;
43363;SDS011;40636;52.424;-1.948;2023-03-01T13:32:20;2.90;;;1.55;;
43363;SDS011;40636;52.424;-1.948;2023-03-01T13:37:45;2.85;;;1.83;;
43363;SDS011;40636;52.424;-1.948;2023-03-01T13:42:43;8.15;;;1.40;;
43363;SDS011;40636;52.424;-1.948;2023-03-01T13:48:14;4.93;;;1.60;;
43363;SDS011;40636;52.424;-1.948;2023-03-01T13:50:49;4.40;;;1.83;;
43363;SDS011;40636;52.424;-1.948;2023-03-01T13:53:20;4.57;;;1.63;;
43363;SDS011;40636;52.424;-1.948;2023-03-01T13:55:51;8.85;;;3.17;;
43363;SDS011;40636;52.424;-1.948;2023-03-01T13:58:24;2.72;;;1.40;;
43363;SDS011;40636;52.424;-1.948;2023-03-01T14:01:03;7.22;;;1.75;;
43363;SDS011;40636;52.424;-1.948;2023-03-01T14:03:32;4.05;;;1.88;;
43363;SDS011;40636;52.424;-1.948;2023-03-01T14:06:07;8.63;;;2.28;;
43363;SDS011;40636;52.424;-1.948;2023-03-01T14:08:42;4.18;;;2.08;;
43363;SDS011;40636;52.424;-1.948;2023-03-01T14:19:47;4.03;;;3.03;;
43363;SDS011;40636;52.424;-1.948;2023-03-01T14:22:25;7.43;;;2.83;;
43363;SDS011;40636;52.424;-1.948;2023-03-01T14:24:55;3.42;;;2.28;;
43363;SDS011;40636;52.424;-1.948;2023-03-01T14:27:25;9.05;;;2.75;;
43363;SDS011;40636;52.424;-1.948;2023-03-01T14:29:57;4.63;;;2.53;;
43363;SDS011;40636;52.424;-1.948;2023-03-01T14:32:27;5.93;;;2.85;;
43363;SDS011;40636;52.424;-1.948;2023-03-01T14:34:56;7.57;;;3.35;;
43363;SDS011;40636;52.424;-1.948;2023-03-01T14:37:28;4.18;;;3.08;;
43363;SDS011;40636;52.424;-1.948;2023-03-01T14:39:58;7.60;;;3.33;;
43363;SDS011;40636;52.424;-1.948;2023-03-01T14:42:35;6.38;;;2.90;;
43363;SDS011;40636;52.424;-1.948;2023-03-01T14:45:03;5.75;;;2.88;;
43363;SDS011;40636;52.424;-1.948;2023-03-01T14:47:34;5.55;;;2.97;;
43363;SDS011;40636;52.424;-1.948;2023-03-01T14:50:05;7.85;;;3.22;;
43363;SDS011;40636;52.424;-1.948;2023-03-01T14:52:39;3.65;;;2.08;;
43363;SDS011;40636;52.424;-1.948;2023-03-01T14:55:21;3.75;;;1.88;;
43363;SDS011;40636;52.424;-1.948;2023-03-01T14:57:53;3.05;;;1.60;;
43363;SDS011;40636;52.424;-1.948;2023-03-01T15:00:27;4.32;;;1.33;;
43363;SDS011;40636;52.424;-1.948;2023-03-01T15:02:58;1.50;;;1.30;;
43363;SDS011;40636;52.424;-1.948;2023-03-01T15:05:31;3.45;;;1.27;;
43363;SDS011;40636;52.424;-1.948;2023-03-01T15:07:59;3.65;;;0.90;;
43363;SDS011;40636;52.424;-1.948;2023-03-01T15:10:29;2.25;;;1.67;;
43363;SDS011;40636;52.424;-1.948;2023-03-01T15:13:12;3.42;;;1.58;;
43363;SDS011;40636;52.424;-1.948;2023-03-01T15:15:41;2.58;;;1.90;;
43363;SDS011;40636;52.424;-1.948;2023-03-01T15:18:14;2.08;;;1.60;;
43363;SDS011;40636;52.424;-1.948;2023-03-01T15:20:41;3.78;;;1.30;;
43363;SDS011;40636;52.424;-1.948;2023-03-01T15:23:25;2.72;;;1.50;;
43363;SDS011;40636;52.424;-1.948;2023-03-01T15:25:54;2.65;;;1.40;;
43363;SDS011;40636;52.424;-1.948;2023-03-01T15:28:34;2.38;;;1.60;;
43363;SDS011;40636;52.424;-1.948;2023-03-01T15:31:19;1.98;;;1.40;;
43363;SDS011;40636;52.424;-1.948;2023-03-01T15:33:48;2.40;;;1.30;;
43363;SDS011;40636;52.424;-1.948;2023-03-01T15:36:58;2.95;;;1.88;;
43363;SDS011;40636;52.424;-1.948;2023-03-01T15:42:08;1.85;;;1.75;;
43363;SDS011;40636;52.424;-1.948;2023-03-01T15:44:37;4.88;;;1.60;;
43363;SDS011;40636;52.424;-1.948;2023-03-01T15:47:29;3.42;;;1.17;;
43363;SDS011;40636;52.424;-1.948;2023-03-01T15:49:57;3.05;;;1.55;;
43363;SDS011;40636;52.424;-1.948;2023-03-01T15:55:06;5.72;;;2.22;;
43363;SDS011;40636;52.424;-1.948;2023-03-01T15:57:42;3.72;;;1.70;;
43363;SDS011;40636;52.424;-1.948;2023-03-01T16:00:10;1.98;;;1.30;;
43363;SDS011;40636;52.424;-1.948;2023-03-01T16:02:40;2.97;;;1.50;;
43363;SDS011;40636;52.424;-1.948;2023-03-01T16:05:16;4.60;;;1.63;;
43363;SDS011;40636;52.424;-1.948;2023-03-01T16:07:52;3.15;;;2.03;;
43363;SDS011;40636;52.424;-1.948;2023-03-01T16:10:20;5.47;;;1.98;;
43363;SDS011;40636;52.424;-1.948;2023-03-01T16:12:47;3.22;;;1.70;;
43363;SDS011;40636;52.424;-1.948;2023-03-01T16:15:18;6.63;;;1.92;;
43363;SDS011;40636;52.424;-1.948;2023-03-01T16:17:47;4.65;;;1.90;;
43363;SDS011;40636;52.424;-1.948;2023-03-01T16:20:13;5.10;;;2.45;;
43363;SDS011;40636;52.424;-1.948;2023-03-01T16:22:53;4.70;;;2.50;;
43363;SDS011;40636;52.424;-1.948;2023-03-01T16:25:21;5.38;;;2.30;;
43363;SDS011;40636;52.424;-1.948;2023-03-01T16:27:49;3.20;;;1.92;;
43363;SDS011;40636;52.424;-1.948;2023-03-01T16:30:20;6.38;;;2.05;;
43363;SDS011;40636;52.424;-1.948;2023-03-01T16:32:49;3.20;;;2.13;;
43363;SDS011;40636;52.424;-1.948;2023-03-01T16:35:17;6.82;;;2.42;;